• Join FlightAware (Why Join?)
  • Login
  • US Flag 
07:40PM EDT


 

Airport Tracker/Info


-or-


 

Live Flight TrackerFlight Track Log ✈ GTI110 ✈ 19-Jul-2013 ✈ KATL - KCVG

Flight Track Log - Related Links

Times and Time Zones

All times are in EDT time to prevent confusion due to time zone crossing. See the GTI110 flight status page for this flight to view local times or setup timezone preferences in your user account.

Time Position Orientation Groundspeed Altitude Reporting Facility
EDT Latitude Longitude Course Direction KTS MPH feet Rate Location/Type
12:36AM 33.6500 -84.4667 270° West 174 200 2,600  Level Atlanta TRACON
12:37AM 33.6500 -84.5333 270° West 232 267 4,500 2,340 Climbing Atlanta TRACON
12:38AM 33.7167 -84.5333 360° North 286 329 7,300 2,700 Climbing Atlanta TRACON
12:39AM 33.8331 -84.4939 16° North 283 326 11,500 2,580 Climbing Atlanta Center
12:40AM 33.9397 -84.4444 21° North 350 403 14,000 2,580 Climbing Atlanta Center
12:41AM 34.0358 -84.3997 21° North 351 404 16,700 2,400 Climbing Atlanta Center
12:43AM 34.2364 -84.3050 21° North 405 466 21,300 2,220 Climbing Atlanta Center
12:44AM 34.3492 -84.2653 16° North 416 479 23,500 2,100 Climbing Atlanta Center
12:45AM 34.4703 -84.2378 11° North 431 496 25,600 2,100 Climbing Atlanta Center
12:46AM 34.5978 -84.2103 10° North 448 516 27,700 1,860 Climbing Atlanta Center
12:47AM 34.7208 -84.1828 10° North 449 517 29,400 1,500 Climbing Atlanta Center
12:48AM 34.8522 -84.1528 11° North 454 522 30,800 1,560 Climbing Atlanta Center
12:49AM 34.9839 -84.1200 12° North 470 541 32,600 1,080 Climbing Atlanta Center
12:50AM 35.1133 -84.0922 10° North 470 541 33,000 180 Climbing Atlanta Center
12:51AM 35.2447 -84.0997 357° North 470 541 33,000  Level Atlanta Center
12:52AM 35.3803 -84.1203 353° North 475 547 33,000  Level Atlanta Center
12:53AM 35.5158 -84.1433 352° North 485 558 33,000  Level Atlanta Center
12:54AM 35.6472 -84.1639 353° North 485 558 33,000  Level Atlanta Center
12:55AM 35.7808 -84.1822 354° North 485 558 33,000  Level Atlanta Center
12:56AM 35.9164 -84.2028 353° North 485 558 33,000  Level Atlanta Center
12:57AM 36.0519 -84.2236 353° North 485 558 33,000  Level Atlanta Center
12:58AM 36.1503 -84.2367 354° North 483 556 33,000  Level Indianapolis Center
12:59AM 36.3097 -84.2622 353° North 485 558 33,000  Level Indianapolis Center
01:00AM 36.4425 -84.2836 353° North 484 557 33,000  Level Indianapolis Center
01:01AM 36.5606 -84.3031 352° North 485 558 33,000  Level Indianapolis Center
01:02AM 36.6942 -84.3239 353° North 482 555 33,000  Level Indianapolis Center
01:03AM 36.8275 -84.3453 353° North 481 554 33,000  Level Indianapolis Center
01:04AM 36.9614 -84.3664 353° North 482 555 33,000  Level Indianapolis Center
01:05AM 37.0944 -84.3881 353° North 480 552 33,000 -1,380 Level Indianapolis Center
01:06AM 37.2275 -84.4097 353° North 480 552 30,300 -2,340 Descending Indianapolis Center
01:07AM 37.3608 -84.4311 353° North 479 551 28,300 -2,160 Descending Indianapolis Center
01:08AM 37.4872 -84.4506 353° North 460 529 26,000 -2,340 Descending Indianapolis Center
01:09AM 37.6100 -84.4708 353° North 446 513 23,600 -2,280 Descending Indianapolis Center
01:10AM 37.7294 -84.4906 353° North 436 502 21,500 -1,800 Descending Indianapolis Center
01:11AM 37.8472 -84.5083 353° North 426 490 20,000 -1,440 Descending Indianapolis Center
01:12AM 37.9622 -84.5292 352° North 419 482 18,700 -1,200 Descending Indianapolis Center
01:13AM 38.0764 -84.5475 353° North 414 476 17,600 -1,140 Descending Indianapolis Center
01:14AM 38.1897 -84.5647 353° North 411 473 16,500 -1,140 Descending Indianapolis Center
01:15AM 38.2992 -84.5833 352° North 396 456 15,400 -1,080 Descending Indianapolis Center
01:16AM 38.4067 -84.6014 353° North 390 449 14,400 -1,320 Descending Indianapolis Center
01:17AM 38.5103 -84.6186 353° North 376 433 12,800 -1,800 Descending Indianapolis Center
01:18AM 38.6111 -84.6356 353° North 366 421 10,900 -1,380 Descending Indianapolis Center
01:19AM 38.7061 -84.6567 350° North 332 382 10,100 -1,020 Descending Indianapolis Center
01:20AM 38.7711 -84.7136 326° Northwest 288 331 8,900 -1,140 Descending Indianapolis Center
01:21AM 38.8339 -84.7731 324° Northwest 281 323 7,900 -1,200 Descending Indianapolis Center
01:22AM 38.9000 -84.8333 325° Northwest 266 306 6,600 -960 Descending Cincinnati TRACON
01:23AM 38.9667 -84.8833 330° Northwest 232 267 6,000 -660 Descending Cincinnati TRACON
01:24AM 39.0167 -84.9167 333° Northwest 198 228 5,300 -1,140 Descending Cincinnati TRACON
01:25AM 39.0500 -84.8833 38° Northeast 208 239 3,900 -1,380 Descending Cincinnati TRACON
01:26AM 39.0500 -84.8167 90° East 181 208 2,700 -1,020 Descending Cincinnati TRACON
01:27AM 39.0500 -84.7500 90° East 152 175 1,800 -840 Descending Cincinnati TRACON
01:28AM 39.0500 -84.7000 90° East 154 177 1,000 -840 Descending Cincinnati TRACON